Time;durP1;ratioP1;P1;durP2;ratioP2;P2;SDS_P1;SDS_P2;PMS_P1;PMS_P2;Temp;Humidity;BMP_temperature;BMP_pressure;BME280_temperature;BME280_humidity;BME280_pressure;Samples;Min_cycle;Max_cycle;Signal;HPM_P1;HPM_P2
2023/12/18 00:00:14;;;;;;;3.60;3.40;;;4.20;99.90;;;;;;5099261;28;20193;-76
2023/12/18 00:02:43;;;;;;;3.45;3.25;;;4.20;99.90;;;;;;5096553;28;20224;-76
2023/12/18 00:05:10;;;;;;;3.33;3.13;;;4.20;99.90;;;;;;5095984;28;20196;-77
2023/12/18 00:07:37;;;;;;;3.38;3.17;;;4.10;99.90;;;;;;5094549;28;20228;-75
2023/12/18 00:10:05;;;;;;;3.17;2.97;;;4.10;99.90;;;;;;5093564;28;20209;-76
2023/12/18 00:12:32;;;;;;;2.92;2.75;;;4.10;99.90;;;;;;5094562;27;20836;-76
2023/12/18 00:14:59;;;;;;;3.70;3.50;;;4.10;99.90;;;;;;5094267;28;20209;-76
2023/12/18 00:17:26;;;;;;;3.40;3.20;;;4.00;99.90;;;;;;5090967;28;20201;-77
2023/12/18 00:19:55;;;;;;;3.20;3.00;;;4.00;99.90;;;;;;5094471;28;20205;-76
2023/12/18 00:22:22;;;;;;;3.30;3.10;;;4.10;99.90;;;;;;5092288;27;20201;-76
2023/12/18 00:24:49;;;;;;;3.38;3.17;;;4.10;99.90;;;;;;5097803;28;20213;-76
2023/12/18 00:27:16;;;;;;;2.92;2.83;;;4.10;99.90;;;;;;5097473;28;20229;-77
2023/12/18 00:29:43;;;;;;;3.08;2.88;;;4.10;99.90;;;;;;5095579;28;20205;-76
2023/12/18 00:32:10;;;;;;;3.05;2.85;;;4.10;99.90;;;;;;5097704;27;20219;-76
2023/12/18 00:34:40;;;;;;;3.50;3.30;;;4.10;99.90;;;;;;5104459;27;20420;-76
2023/12/18 00:37:08;;;;;;;3.30;3.10;;;4.10;99.90;;;;;;5103336;27;20950;-76
2023/12/18 00:39:36;;;;;;;3.30;3.10;;;4.10;99.90;;;;;;5100786;27;20212;-76
2023/12/18 00:42:03;;;;;;;3.38;3.17;;;4.10;99.90;;;;;;5098812;27;20197;-77
2023/12/18 00:44:31;;;;;;;3.60;3.40;;;4.10;99.90;;;;;;5102853;27;20228;-76
2023/12/18 00:46:58;;;;;;;3.20;3.00;;;4.10;99.90;;;;;;5103205;27;20223;-76
2023/12/18 00:49:27;;;;;;;3.50;3.28;;;4.10;99.90;;;;;;5103610;27;20213;-76
2023/12/18 00:51:54;;;;;;;3.25;3.05;;;4.10;99.90;;;;;;5100631;27;20306;-75
2023/12/18 00:54:23;;;;;;;3.25;3.05;;;4.10;99.90;;;;;;5101104;27;20224;-75
2023/12/18 00:56:50;;;;;;;3.50;3.30;;;4.10;99.90;;;;;;5105754;27;20220;-76
2023/12/18 00:59:17;;;;;;;3.33;3.13;;;4.20;99.90;;;;;;5108881;27;20220;-76
2023/12/18 01:01:44;;;;;;;2.95;2.85;;;4.20;99.90;;;;;;5104109;27;20193;-76
2023/12/18 01:04:12;;;;;;;3.50;3.28;;;4.20;99.90;;;;;;5102219;27;20216;-76
2023/12/18 01:06:39;;;;;;;3.47;3.28;;;4.20;99.90;;;;;;5104327;27;20243;-76
2023/12/18 01:09:07;;;;;;;3.28;3.08;;;4.10;99.90;;;;;;5104687;27;20236;-75
2023/12/18 01:11:36;;;;;;;3.42;3.13;;;4.10;99.90;;;;;;5105784;27;20858;-77
2023/12/18 01:14:03;;;;;;;3.10;2.90;;;4.10;99.90;;;;;;5104138;27;20225;-75
2023/12/18 01:16:30;;;;;;;3.20;3.00;;;4.10;99.90;;;;;;5102950;27;20240;-75
2023/12/18 01:18:57;;;;;;;3.40;3.20;;;4.20;99.90;;;;;;5104199;27;20220;-76
2023/12/18 01:21:24;;;;;;;3.30;3.10;;;4.20;99.90;;;;;;5107472;27;20205;-77
2023/12/18 01:23:51;;;;;;;3.20;3.00;;;4.30;99.90;;;;;;5110297;27;20213;-78
2023/12/18 01:26:18;;;;;;;2.95;2.78;;;4.30;99.90;;;;;;5106066;27;20235;-75
2023/12/18 01:28:47;;;;;;;2.95;2.85;;;4.30;99.90;;;;;;5102262;27;20280;-76
2023/12/18 01:31:22;;;;;;;3.15;2.95;;;4.30;99.90;;;;;;5099506;27;20204;-77
2023/12/18 01:33:49;;;;;;;3.40;3.20;;;4.20;99.90;;;;;;5101424;27;20304;-76
2023/12/18 01:36:16;;;;;;;3.58;3.38;;;4.20;99.90;;;;;;5098990;27;20221;-76
2023/12/18 01:38:43;;;;;;;3.90;3.60;;;4.20;99.90;;;;;;5100629;27;20220;-76
2023/12/18 01:41:10;;;;;;;3.10;2.90;;;4.20;99.90;;;;;;5099970;27;20209;-77
2023/12/18 01:43:37;;;;;;;3.53;3.22;;;4.10;99.90;;;;;;5096427;27;20225;-76
2023/12/18 01:46:06;;;;;;;3.13;3.03;;;4.10;99.90;;;;;;5096984;28;20229;-76
2023/12/18 01:48:34;;;;;;;3.33;3.13;;;4.10;99.90;;;;;;5094990;28;20221;-76
2023/12/18 01:51:02;;;;;;;2.85;2.75;;;4.10;99.90;;;;;;5098993;28;20232;-77
2023/12/18 01:53:37;;;;;;;3.60;3.33;;;4.10;99.90;;;;;;5094824;28;20295;-78
2023/12/18 01:56:06;;;;;;;3.45;3.25;;;4.10;99.90;;;;;;5104686;27;20246;-77
2023/12/18 01:58:34;;;;;;;4.07;3.70;;;4.20;99.90;;;;;;5102095;27;20228;-77
2023/12/18 02:01:02;;;;;;;3.60;3.40;;;4.20;99.90;;;;;;5098684;28;20311;-76
2023/12/18 02:03:31;;;;;;;3.30;3.10;;;4.20;99.90;;;;;;5096580;28;20224;-77
2023/12/18 02:05:58;;;;;;;3.40;3.20;;;4.20;99.90;;;;;;5099051;28;20224;-75
2023/12/18 02:08:26;;;;;;;3.20;3.00;;;4.20;99.90;;;;;;5097158;28;20220;-77
2023/12/18 02:10:53;;;;;;;3.28;3.08;;;4.20;99.90;;;;;;5099080;27;20793;-76
2023/12/18 02:13:20;;;;;;;3.30;3.08;;;4.20;99.90;;;;;;5097161;28;20229;-76
2023/12/18 02:15:47;;;;;;;3.40;3.20;;;4.20;99.90;;;;;;5096973;28;20233;-76
2023/12/18 02:18:15;;;;;;;2.85;2.75;;;4.10;99.90;;;;;;5098444;27;20224;-76
2023/12/18 02:20:44;;;;;;;3.20;3.00;;;4.00;99.90;;;;;;5097486;28;20215;-76
2023/12/18 02:23:12;;;;;;;3.47;3.17;;;4.00;99.90;;;;;;5095612;28;20239;-77
2023/12/18 02:25:39;;;;;;;3.40;3.20;;;4.00;99.90;;;;;;5097633;28;20475;-76
2023/12/18 02:28:10;;;;;;;3.65;3.45;;;3.90;99.90;;;;;;5095349;28;20217;-78
2023/12/18 02:30:37;;;;;;;3.15;3.00;;;3.80;99.90;;;;;;5099154;28;20204;-77
2023/12/18 02:33:04;;;;;;;3.25;3.08;;;3.80;99.90;;;;;;5098746;28;20228;-76
2023/12/18 02:35:31;;;;;;;3.50;3.30;;;3.80;99.90;;;;;;5097650;28;20216;-76
2023/12/18 02:37:58;;;;;;;3.50;3.30;;;3.80;99.90;;;;;;5095946;27;20220;-77
2023/12/18 02:40:27;;;;;;;3.33;3.13;;;3.70;99.90;;;;;;5096475;28;20200;-76
2023/12/18 02:42:54;;;;;;;3.33;3.13;;;3.70;99.90;;;;;;5098335;27;20225;-76
2023/12/18 02:45:21;;;;;;;3.38;3.20;;;3.70;99.90;;;;;;5096157;28;20954;-77
2023/12/18 02:47:48;;;;;;;3.30;3.10;;;3.70;99.90;;;;;;5096455;28;20217;-77
2023/12/18 02:50:16;;;;;;;3.22;3.03;;;3.70;99.90;;;;;;5094279;28;20204;-76
2023/12/18 02:52:43;;;;;;;3.30;3.10;;;3.70;99.90;;;;;;5094989;27;20244;-76
2023/12/18 02:55:12;;;;;;;3.08;2.88;;;3.70;99.90;;;;;;5103592;27;20255;-77
2023/12/18 02:57:40;;;;;;;3.42;3.22;;;3.70;99.90;;;;;;5097682;28;20274;-77
2023/12/18 03:00:09;;;;;;;3.15;3.03;;;3.70;99.90;;;;;;5096672;28;20200;-76
2023/12/18 03:02:36;;;;;;;3.25;3.03;;;3.70;99.90;;;;;;5097099;27;20343;-77
2023/12/18 03:05:04;;;;;;;3.53;3.33;;;3.70;99.90;;;;;;5096415;28;20193;-75
2023/12/18 03:07:31;;;;;;;3.58;3.38;;;3.70;99.90;;;;;;5098566;28;20207;-76
2023/12/18 03:09:58;;;;;;;2.78;2.67;;;3.60;99.90;;;;;;5097070;28;20204;-75
2023/12/18 03:12:25;;;;;;;3.60;3.40;;;3.60;99.90;;;;;;5095016;28;20216;-77
2023/12/18 03:14:54;;;;;;;3.42;3.22;;;3.60;99.90;;;;;;5095942;28;20195;-77
2023/12/18 03:17:21;;;;;;;2.83;2.72;;;3.60;99.90;;;;;;5098556;28;20216;-77
2023/12/18 03:19:48;;;;;;;3.03;2.92;;;3.60;99.90;;;;;;5096778;27;20197;-77
2023/12/18 03:22:15;;;;;;;3.30;3.10;;;3.70;99.90;;;;;;5096004;28;20193;-76
2023/12/18 03:24:42;;;;;;;3.38;3.17;;;3.60;99.90;;;;;;5095097;28;20193;-76
2023/12/18 03:27:10;;;;;;;3.47;3.28;;;3.60;99.90;;;;;;5094732;28;20416;-77
2023/12/18 03:29:37;;;;;;;3.38;3.17;;;3.70;99.90;;;;;;5097281;28;20224;-76
2023/12/18 03:32:06;;;;;;;3.40;3.20;;;3.70;99.90;;;;;;5095535;28;20204;-78
2023/12/18 03:34:33;;;;;;;3.30;3.10;;;3.70;99.90;;;;;;5096512;27;20239;-76
2023/12/18 03:37:00;;;;;;;3.17;2.97;;;3.70;99.90;;;;;;5095463;28;20714;-76
2023/12/18 03:39:27;;;;;;;3.38;3.17;;;3.70;99.90;;;;;;5072758;28;20315;-77
2023/12/18 03:41:54;;;;;;;2.80;2.70;;;3.70;99.90;;;;;;5074990;28;20799;-75
2023/12/18 03:44:21;;;;;;;3.22;3.03;;;3.60;99.90;;;;;;5091858;28;20755;-75
2023/12/18 03:46:48;;;;;;;3.13;2.92;;;3.60;99.90;;;;;;5097815;28;20219;-75
2023/12/18 03:49:17;;;;;;;3.13;2.92;;;3.50;99.90;;;;;;5092855;28;20213;-76
2023/12/18 03:51:44;;;;;;;3.50;3.30;;;3.50;99.90;;;;;;5095886;28;20200;-75
2023/12/18 03:54:11;;;;;;;3.10;3.00;;;3.50;99.90;;;;;;5101940;28;20249;-76
2023/12/18 03:56:38;;;;;;;3.33;3.13;;;3.50;99.90;;;;;;5095796;27;20652;-75
2023/12/18 03:59:05;;;;;;;3.10;2.90;;;3.50;99.90;;;;;;5095541;28;20225;-77
2023/12/18 04:01:36;;;;;;;3.53;3.33;;;3.50;99.90;;;;;;5092905;28;20215;-76
2023/12/18 04:04:03;;;;;;;3.20;3.03;;;3.50;99.90;;;;;;5094846;28;20201;-77
2023/12/18 04:06:31;;;;;;;3.13;3.00;;;3.50;99.90;;;;;;5093354;28;20692;-77
2023/12/18 04:08:58;;;;;;;3.40;3.20;;;3.50;99.90;;;;;;5093053;27;20220;-75
2023/12/18 04:11:25;;;;;;;3.72;3.53;;;3.40;99.90;;;;;;5094111;28;21108;-77
2023/12/18 04:13:53;;;;;;;3.10;2.90;;;3.40;99.90;;;;;;5092429;28;20227;-76
2023/12/18 04:16:20;;;;;;;3.20;3.00;;;3.40;99.90;;;;;;5093284;28;20226;-76
2023/12/18 04:18:48;;;;;;;3.17;2.97;;;3.40;99.90;;;;;;5095776;28;20240;-75
2023/12/18 04:21:15;;;;;;;3.08;2.97;;;3.40;99.90;;;;;;5093092;28;20201;-76
2023/12/18 04:23:43;;;;;;;3.10;3.00;;;3.40;99.90;;;;;;5093796;28;20702;-76
2023/12/18 04:26:10;;;;;;;3.28;3.08;;;3.40;99.90;;;;;;5094280;28;20220;-77
2023/12/18 04:28:37;;;;;;;3.03;2.83;;;3.50;99.90;;;;;;5092794;28;20227;-76
2023/12/18 04:31:04;;;;;;;3.40;3.20;;;3.50;99.90;;;;;;5095797;28;20424;-77
2023/12/18 04:33:32;;;;;;;3.40;3.20;;;3.50;99.90;;;;;;5095374;28;20217;-76
2023/12/18 04:36:00;;;;;;;2.85;2.75;;;3.50;99.90;;;;;;5098225;27;20216;-76
2023/12/18 04:38:28;;;;;;;3.60;3.40;;;3.50;99.90;;;;;;5091241;27;20312;-77
2023/12/18 04:40:58;;;;;;;3.45;3.25;;;3.50;99.90;;;;;;5094941;28;20917;-75
2023/12/18 04:43:25;;;;;;;3.45;3.25;;;3.40;99.90;;;;;;5095807;28;20833;-77
2023/12/18 04:45:53;;;;;;;3.40;3.20;;;3.40;99.90;;;;;;5097495;28;20221;-77
2023/12/18 04:48:20;;;;;;;3.70;3.50;;;3.40;99.90;;;;;;5096400;27;20217;-75
2023/12/18 04:50:47;;;;;;;3.60;3.40;;;3.40;99.90;;;;;;5095931;28;20200;-76
2023/12/18 04:53:14;;;;;;;3.78;3.58;;;3.40;99.90;;;;;;5104620;28;20224;-77
2023/12/18 04:55:41;;;;;;;3.72;3.53;;;3.40;99.90;;;;;;5103071;28;20221;-76
2023/12/18 04:58:09;;;;;;;3.75;3.47;;;3.40;99.90;;;;;;5095969;28;20259;-76
2023/12/18 05:00:36;;;;;;;3.45;3.25;;;3.40;99.90;;;;;;5093754;28;20294;-75
2023/12/18 05:03:03;;;;;;;3.38;3.08;;;3.40;99.90;;;;;;5094244;28;20227;-77
2023/12/18 05:05:30;;;;;;;3.35;3.15;;;3.50;99.90;;;;;;5091515;28;20899;-76
2023/12/18 05:07:57;;;;;;;3.40;3.20;;;3.50;99.90;;;;;;5094752;28;20216;-76
2023/12/18 05:10:24;;;;;;;3.58;3.38;;;3.50;99.90;;;;;;5091328;28;20205;-76
2023/12/18 05:12:51;;;;;;;3.30;3.10;;;3.40;99.90;;;;;;5093708;28;20233;-76
2023/12/18 05:15:20;;;;;;;3.67;3.38;;;3.40;99.90;;;;;;5094168;28;20213;-75
2023/12/18 05:17:47;;;;;;;2.78;2.67;;;3.40;99.90;;;;;;5094007;28;20217;-77
2023/12/18 05:20:14;;;;;;;3.40;3.20;;;3.40;99.90;;;;;;5099947;28;20193;-75
2023/12/18 05:22:41;;;;;;;3.25;3.05;;;3.40;99.90;;;;;;5096679;28;20220;-76
2023/12/18 05:25:09;;;;;;;3.60;3.40;;;3.40;99.90;;;;;;5100450;28;20201;-76
2023/12/18 05:27:36;;;;;;;3.55;3.35;;;3.40;99.90;;;;;;5100985;27;20232;-76
2023/12/18 05:30:04;;;;;;;3.70;3.40;;;3.40;99.90;;;;;;5100725;28;20201;-77
2023/12/18 05:32:33;;;;;;;4.10;3.80;;;3.40;99.90;;;;;;5097660;28;20635;-76
2023/12/18 05:35:00;;;;;;;3.45;3.25;;;3.40;99.90;;;;;;5097727;28;20232;-76
2023/12/18 05:37:27;;;;;;;3.80;3.50;;;3.40;99.90;;;;;;5097381;28;20679;-77
2023/12/18 05:39:54;;;;;;;3.67;3.47;;;3.40;99.90;;;;;;5095711;28;20196;-76
2023/12/18 05:42:21;;;;;;;3.65;3.45;;;3.50;99.90;;;;;;5097305;27;20197;-77
2023/12/18 05:44:48;;;;;;;3.88;3.67;;;3.50;99.90;;;;;;5098152;28;20199;-77
2023/12/18 05:47:15;;;;;;;3.75;3.55;;;3.50;99.90;;;;;;5097911;28;20213;-76
2023/12/18 05:49:43;;;;;;;3.40;3.20;;;3.50;99.90;;;;;;5097295;28;20683;-76
2023/12/18 05:52:10;;;;;;;3.60;3.40;;;3.50;99.90;;;;;;5112591;28;20193;-77
2023/12/18 05:54:39;;;;;;;3.50;3.30;;;3.40;99.90;;;;;;5098935;28;20947;-77
2023/12/18 05:57:06;;;;;;;3.80;3.60;;;3.40;99.90;;;;;;5096170;27;20229;-76
2023/12/18 05:59:33;;;;;;;3.60;3.40;;;3.40;99.90;;;;;;5096937;27;20255;-77
2023/12/18 06:02:00;;;;;;;3.55;3.35;;;3.30;99.90;;;;;;5097244;28;20200;-77
2023/12/18 06:04:27;;;;;;;4.13;3.83;;;3.40;99.90;;;;;;5098303;27;20217;-76
2023/12/18 06:06:56;;;;;;;3.80;3.60;;;3.90;99.90;;;;;;5098962;28;20604;-76
2023/12/18 06:09:23;;;;;;;3.35;3.15;;;4.00;99.90;;;;;;5095820;27;20993;-76
2023/12/18 06:11:50;;;;;;;3.60;3.40;;;3.90;99.90;;;;;;5095506;28;20209;-76
2023/12/18 06:14:17;;;;;;;3.88;3.58;;;3.80;99.90;;;;;;5099147;28;20233;-75
2023/12/18 06:16:44;;;;;;;3.95;3.65;;;3.70;99.90;;;;;;5097317;28;20311;-76
2023/12/18 06:19:11;;;;;;;3.60;3.40;;;3.50;99.90;;;;;;5099988;28;20221;-76
2023/12/18 06:21:42;;;;;;;4.55;4.25;;;3.30;99.90;;;;;;5098359;28;20212;-76
2023/12/18 06:24:10;;;;;;;4.80;4.50;;;3.20;99.90;;;;;;5100258;28;20268;-76
2023/12/18 06:26:37;;;;;;;4.28;3.97;;;3.20;99.90;;;;;;5095217;28;20233;-76
2023/12/18 06:29:04;;;;;;;4.10;3.90;;;3.10;99.90;;;;;;5097085;28;20244;-77
2023/12/18 06:31:32;;;;;;;4.22;3.92;;;3.10;99.90;;;;;;5097441;28;20204;-75
2023/12/18 06:33:59;;;;;;;4.47;4.18;;;3.10;99.90;;;;;;5089101;28;20248;-75
2023/12/18 06:36:26;;;;;;;4.22;3.92;;;3.10;99.90;;;;;;5092552;28;20596;-79
2023/12/18 06:38:53;;;;;;;4.15;3.85;;;3.10;99.90;;;;;;5093837;28;20247;-76
2023/12/18 06:41:22;;;;;;;4.13;3.92;;;3.20;99.90;;;;;;5096070;28;20201;-75
2023/12/18 06:43:49;;;;;;;3.92;3.72;;;3.20;99.90;;;;;;5093900;28;20231;-76
2023/12/18 06:46:16;;;;;;;3.67;3.47;;;3.20;99.90;;;;;;5094867;28;20718;-76
2023/12/18 06:48:43;;;;;;;4.03;3.83;;;3.20;99.90;;;;;;5088726;28;20578;-77
2023/12/18 06:51:10;;;;;;;4.00;3.72;;;3.20;99.90;;;;;;5094512;28;20201;-77
2023/12/18 06:53:37;;;;;;;3.65;3.45;;;3.20;99.90;;;;;;5092660;27;20217;-76
2023/12/18 06:56:05;;;;;;;3.85;3.65;;;3.20;99.90;;;;;;5096007;28;20232;-75
2023/12/18 06:58:33;;;;;;;3.78;3.58;;;3.20;99.90;;;;;;5091641;28;20894;-76
2023/12/18 07:01:00;;;;;;;3.47;3.25;;;3.20;99.90;;;;;;5093602;28;20205;-77
2023/12/18 07:03:27;;;;;;;3.65;3.45;;;3.20;99.90;;;;;;5091566;28;20221;-78
2023/12/18 07:05:54;;;;;;;3.78;3.58;;;3.20;99.90;;;;;;5097302;28;20221;-76
2023/12/18 07:08:22;;;;;;;3.92;3.70;;;3.20;99.90;;;;;;5097866;27;20767;-77
2023/12/18 07:10:49;;;;;;;3.47;3.28;;;3.20;99.90;;;;;;5093049;28;20201;-76
2023/12/18 07:13:16;;;;;;;3.80;3.60;;;3.20;99.90;;;;;;5096436;28;20878;-76
2023/12/18 07:15:45;;;;;;;4.47;4.18;;;3.30;99.90;;;;;;5091292;28;20227;-78
2023/12/18 07:18:13;;;;;;;3.70;3.50;;;3.30;99.90;;;;;;5092788;28;20217;-76
2023/12/18 07:20:41;;;;;;;3.65;3.45;;;3.30;99.90;;;;;;5093034;28;20201;-76
2023/12/18 07:23:08;;;;;;;3.75;3.55;;;3.40;99.90;;;;;;5087448;28;20646;-79
2023/12/18 07:25:35;;;;;;;3.85;3.65;;;3.40;99.90;;;;;;5092880;28;20235;-76
2023/12/18 07:28:04;;;;;;;3.97;3.70;;;3.40;99.90;;;;;;5092381;28;20894;-77
2023/12/18 07:30:31;;;;;;;3.70;3.50;;;3.40;99.90;;;;;;5091845;27;20249;-75
2023/12/18 07:33:00;;;;;;;4.00;3.70;;;3.40;99.90;;;;;;5089930;27;20229;-76
2023/12/18 07:35:27;;;;;;;3.70;3.50;;;3.30;99.90;;;;;;5095496;27;20237;-77
2023/12/18 07:37:54;;;;;;;4.10;3.80;;;3.30;99.90;;;;;;5089898;28;20225;-77
2023/12/18 07:40:21;;;;;;;4.60;4.20;;;3.30;99.90;;;;;;5091045;27;20873;-76
2023/12/18 07:42:48;;;;;;;3.90;3.70;;;3.40;99.90;;;;;;5091054;28;20228;-75
2023/12/18 07:45:16;;;;;;;3.65;3.35;;;3.40;99.90;;;;;;5094901;28;20201;-77
2023/12/18 07:47:43;;;;;;;3.95;3.70;;;3.40;99.90;;;;;;5093746;28;20208;-78
2023/12/18 07:50:13;;;;;;;4.00;3.70;;;3.50;99.90;;;;;;5097904;28;20680;-76
2023/12/18 07:52:40;;;;;;;3.47;3.28;;;3.50;99.90;;;;;;5090234;28;20223;-76
2023/12/18 07:55:08;;;;;;;4.00;3.70;;;3.50;99.90;;;;;;5091912;28;20244;-77
2023/12/18 07:57:35;;;;;;;3.83;3.63;;;3.50;99.90;;;;;;5090981;28;20505;-77
2023/12/18 08:00:03;;;;;;;3.85;3.65;;;3.60;99.90;;;;;;5100950;28;20208;-77
2023/12/18 08:02:30;;;;;;;4.13;3.85;;;3.60;99.90;;;;;;5099677;28;20201;-79
2023/12/18 08:04:57;;;;;;;4.32;4.03;;;3.60;99.90;;;;;;5097969;28;20208;-78
2023/12/18 08:07:25;;;;;;;5.90;5.50;;;3.60;99.90;;;;;;5095510;27;20235;-76
2023/12/18 08:09:52;;;;;;;4.47;4.07;;;3.60;99.90;;;;;;5094826;28;20617;-76
2023/12/18 08:12:19;;;;;;;4.70;4.30;;;3.60;99.90;;;;;;5097920;28;20209;-77
2023/12/18 08:14:47;;;;;;;4.95;4.55;;;3.70;99.90;;;;;;5100691;28;20486;-77
2023/12/18 08:17:15;;;;;;;4.88;4.47;;;3.90;99.90;;;;;;5098071;27;20217;-78
2023/12/18 08:19:47;;;;;;;4.90;4.50;;;4.50;99.90;;;;;;5095636;28;20288;-78
2023/12/18 08:22:14;;;;;;;5.22;4.82;;;5.50;99.90;;;;;;5094657;28;20233;-78
2023/12/18 08:24:42;;;;;;;5.65;5.15;;;6.50;99.90;;;;;;5098436;27;20197;-77
2023/12/18 08:27:09;;;;;;;4.95;4.50;;;7.40;99.90;;;;;;5099448;28;20220;-78
2023/12/18 08:29:39;;;;;;;5.43;4.97;;;8.20;99.90;;;;;;5100109;27;20247;-77
2023/12/18 08:32:10;;;;;;;4.45;4.15;;;9.00;99.90;;;;;;5093750;28;20312;-79
2023/12/18 08:34:38;;;;;;;4.35;3.95;;;9.70;99.90;;;;;;5097830;28;20332;-78
2023/12/18 08:37:09;;;;;;;3.63;3.40;;;10.30;99.90;;;;;;5098294;28;20247;-77
2023/12/18 08:39:38;;;;;;;3.90;3.60;;;10.80;99.90;;;;;;5099748;28;20530;-77
2023/12/18 08:42:08;;;;;;;3.90;3.60;;;11.30;99.90;;;;;;5101178;28;20208;-77
2023/12/18 08:44:35;;;;;;;4.85;4.45;;;11.70;99.90;;;;;;5099614;27;20206;-78
2023/12/18 08:47:05;;;;;;;5.35;4.85;;;12.00;99.90;;;;;;5102272;28;20244;-78
2023/12/18 08:49:35;;;;;;;5.13;4.63;;;12.30;99.90;;;;;;5103968;27;20231;-77
2023/12/18 08:52:08;;;;;;;4.97;4.45;;;12.60;99.90;;;;;;5099830;28;20671;-77
2023/12/18 08:54:44;;;;;;;4.72;4.32;;;13.30;99.90;;;;;;5103140;27;20244;-77
2023/12/18 08:57:22;;;;;;;4.50;4.10;;;14.00;99.90;;;;;;5104477;28;20294;-78
2023/12/18 08:59:56;;;;;;;5.22;4.32;;;14.60;99.90;;;;;;5096338;27;20219;-77
2023/12/18 09:02:27;;;;;;;4.70;4.30;;;15.00;99.90;;;;;;5109196;28;20196;-77
2023/12/18 09:05:02;;;;;;;4.45;3.88;;;15.40;99.90;;;;;;5081571;28;20212;-78
2023/12/18 09:07:31;;;;;;;4.13;3.72;;;15.40;99.90;;;;;;5102537;28;20216;-78
2023/12/18 09:09:59;;;;;;;4.15;3.75;;;15.80;99.90;;;;;;5100178;28;20224;-78
2023/12/18 09:12:27;;;;;;;4.28;3.90;;;16.50;99.90;;;;;;5097756;28;20212;-77
2023/12/18 09:14:54;;;;;;;4.38;4.05;;;17.40;99.90;;;;;;5090320;27;20224;-77
2023/12/18 09:17:21;;;;;;;4.20;3.40;;;18.60;99.90;;;;;;5099516;27;20231;-77
2023/12/18 09:19:48;;;;;;;3.15;2.80;;;19.80;99.90;;;;;;5097198;27;20236;-77
2023/12/18 09:22:15;;;;;;;5.35;3.28;;;21.00;98.10;;;;;;5096943;28;20283;-76
2023/12/18 09:24:42;;;;;;;3.42;3.00;;;21.40;94.50;;;;;;5092577;28;20846;-77
2023/12/18 09:27:09;;;;;;;3.17;2.88;;;21.60;92.60;;;;;;5093059;28;20227;-77
2023/12/18 09:29:38;;;;;;;4.45;3.10;;;22.10;91.30;;;;;;5093573;28;20225;-76
2023/12/18 09:32:07;;;;;;;4.10;3.60;;;22.40;86.50;;;;;;5090032;28;20201;-77
2023/12/18 09:34:34;;;;;;;3.90;3.38;;;22.80;81.10;;;;;;5092260;28;20214;-76
2023/12/18 09:37:01;;;;;;;3.78;3.40;;;23.00;79.70;;;;;;5089879;28;20239;-78
2023/12/18 09:39:28;;;;;;;4.30;3.90;;;23.50;76.30;;;;;;5091750;28;21007;-77
2023/12/18 09:42:01;;;;;;;3.45;3.15;;;23.60;75.70;;;;;;5089621;28;20204;-77
2023/12/18 09:44:30;;;;;;;3.70;3.40;;;23.70;72.20;;;;;;5094910;28;20220;-78
2023/12/18 09:46:59;;;;;;;4.25;3.85;;;23.60;71.10;;;;;;5095311;27;20785;-77
2023/12/18 09:49:26;;;;;;;4.65;3.88;;;23.20;70.00;;;;;;5096815;27;20221;-77
2023/12/18 09:51:55;;;;;;;4.07;3.67;;;22.70;70.80;;;;;;5093227;28;20944;-76
2023/12/18 09:54:24;;;;;;;4.30;3.90;;;22.00;72.30;;;;;;5096938;27;20321;-77
2023/12/18 09:56:52;;;;;;;3.75;3.45;;;21.20;74.10;;;;;;5088876;28;20225;-77
2023/12/18 09:59:20;;;;;;;4.00;3.60;;;20.00;75.60;;;;;;5094488;28;20216;-78
2023/12/18 10:01:47;;;;;;;3.92;3.15;;;18.70;78.90;;;;;;5090204;28;20208;-77
2023/12/18 10:04:15;;;;;;;3.45;3.25;;;17.10;84.30;;;;;;5091280;28;20221;-77
2023/12/18 10:06:42;;;;;;;3.90;3.60;;;16.10;88.80;;;;;;5093774;28;20225;-77
2023/12/18 10:09:13;;;;;;;4.07;3.67;;;15.00;91.50;;;;;;5093791;27;20220;-77
2023/12/18 10:11:44;;;;;;;3.92;3.20;;;14.30;93.30;;;;;;5094699;28;20204;-76
2023/12/18 10:14:13;;;;;;;3.15;2.95;;;13.80;94.80;;;;;;5093247;28;20317;-76
2023/12/18 10:16:41;;;;;;;3.67;3.38;;;13.30;96.30;;;;;;5091205;28;20859;-77
2023/12/18 10:19:09;;;;;;;3.67;3.38;;;13.10;97.60;;;;;;5090741;27;20331;-77
2023/12/18 10:21:38;;;;;;;3.50;3.25;;;13.10;98.50;;;;;;5092141;28;20824;-77
2023/12/18 10:24:05;;;;;;;3.03;2.83;;;13.10;99.90;;;;;;5091534;28;20316;-76
2023/12/18 10:26:32;;;;;;;3.67;3.38;;;13.20;99.90;;;;;;5086770;27;20883;-76
2023/12/18 10:29:00;;;;;;;3.92;3.55;;;13.20;99.90;;;;;;5088318;27;20224;-76
2023/12/18 10:31:28;;;;;;;4.20;3.80;;;13.40;99.90;;;;;;5089679;28;20207;-75
2023/12/18 10:33:55;;;;;;;4.43;4.03;;;13.50;99.90;;;;;;5089440;27;20235;-76
2023/12/18 10:36:25;;;;;;;4.22;3.83;;;13.30;99.90;;;;;;5091183;28;20656;-76
2023/12/18 10:38:56;;;;;;;4.85;3.85;;;13.50;99.90;;;;;;5087014;28;20223;-77
2023/12/18 10:41:26;;;;;;;3.80;3.50;;;13.50;99.90;;;;;;5087687;28;20197;-76
2023/12/18 10:43:54;;;;;;;4.35;3.83;;;13.80;99.90;;;;;;5096494;28;20228;-77
2023/12/18 10:46:23;;;;;;;3.55;3.25;;;13.80;99.90;;;;;;5087622;27;20225;-77
2023/12/18 10:48:51;;;;;;;5.93;3.50;;;14.00;99.90;;;;;;5086161;28;20616;-76
2023/12/18 10:51:20;;;;;;;4.43;3.63;;;14.10;99.90;;;;;;5090457;28;20197;-77
2023/12/18 10:53:49;;;;;;;3.72;3.42;;;14.00;99.90;;;;;;5093057;28;20266;-76
2023/12/18 10:56:18;;;;;;;4.22;3.75;;;14.20;99.90;;;;;;5089089;28;20746;-76
2023/12/18 10:58:48;;;;;;;4.50;3.50;;;14.20;99.90;;;;;;5090353;28;20225;-76
2023/12/18 11:01:19;;;;;;;3.78;3.33;;;14.40;99.90;;;;;;5088631;28;20217;-77
2023/12/18 11:03:47;;;;;;;4.40;4.00;;;14.60;99.90;;;;;;5095295;27;20332;-77
2023/12/18 11:06:15;;;;;;;3.88;3.22;;;14.60;99.90;;;;;;5088013;28;20216;-77
2023/12/18 11:08:42;;;;;;;3.85;3.35;;;14.30;99.90;;;;;;5090286;28;20225;-77
2023/12/18 11:11:11;;;;;;;4.03;3.63;;;14.30;99.90;;;;;;5092261;28;20723;-76
2023/12/18 11:13:52;;;;;;;5.00;3.72;;;14.30;99.90;;;;;;5091330;27;20235;-77
2023/12/18 11:16:26;;;;;;;4.25;3.85;;;14.50;99.90;;;;;;5090941;27;20358;-76
2023/12/18 11:19:04;;;;;;;3.53;3.22;;;14.70;99.90;;;;;;5090931;27;20223;-76
2023/12/18 11:21:33;;;;;;;3.55;3.25;;;14.70;99.90;;;;;;5091015;28;20212;-75
2023/12/18 11:24:01;;;;;;;4.50;3.55;;;14.80;99.90;;;;;;5092228;28;20229;-77
2023/12/18 11:26:30;;;;;;;3.90;3.50;;;15.00;99.90;;;;;;5091372;28;20225;-77
2023/12/18 11:29:03;;;;;;;3.60;3.30;;;14.90;99.90;;;;;;5091880;28;20325;-76
2023/12/18 11:31:31;;;;;;;3.92;3.53;;;14.90;99.90;;;;;;5088139;27;20232;-77
2023/12/18 11:34:02;;;;;;;4.00;3.60;;;15.00;99.90;;;;;;5089233;28;20220;-77
2023/12/18 11:36:29;;;;;;;4.60;3.88;;;15.20;99.90;;;;;;5093029;28;20317;-76
2023/12/18 11:38:57;;;;;;;4.05;3.63;;;15.20;99.90;;;;;;5087809;28;20224;-77
2023/12/18 11:41:38;;;;;;;4.05;3.72;;;14.90;99.90;;;;;;5087115;28;20288;-77
2023/12/18 11:44:09;;;;;;;3.95;3.63;;;14.80;99.90;;;;;;5091177;28;20335;-76
2023/12/18 11:46:37;;;;;;;4.35;3.70;;;14.60;99.90;;;;;;5090677;28;20303;-76
2023/12/18 11:49:06;;;;;;;5.68;3.80;;;14.20;99.90;;;;;;5088954;27;20246;-77
2023/12/18 11:51:34;;;;;;;3.80;3.50;;;14.10;99.90;;;;;;5090833;28;21002;-75
2023/12/18 11:54:01;;;;;;;4.15;3.80;;;14.00;99.90;;;;;;5090010;28;20963;-78
2023/12/18 11:56:31;;;;;;;5.38;4.03;;;13.90;99.90;;;;;;5090136;27;20922;-76
2023/12/18 11:58:59;;;;;;;5.20;4.05;;;14.00;99.90;;;;;;5089088;28;20767;-76
2023/12/18 12:01:28;;;;;;;4.68;4.05;;;14.00;99.90;;;;;;5084750;28;20209;-75
2023/12/18 12:03:57;;;;;;;5.97;3.83;;;14.10;99.90;;;;;;5092938;28;20765;-76
2023/12/18 12:06:25;;;;;;;4.00;3.67;;;14.10;99.90;;;;;;5098020;27;20710;-76
2023/12/18 12:08:52;;;;;;;5.15;3.72;;;14.10;99.90;;;;;;5095362;28;20240;-76
2023/12/18 12:11:20;;;;;;;4.03;3.70;;;14.20;99.90;;;;;;5093933;28;20196;-77
2023/12/18 12:13:48;;;;;;;4.22;3.80;;;14.30;99.90;;;;;;5088743;28;20308;-77
2023/12/18 12:16:17;;;;;;;3.97;3.63;;;14.20;99.90;;;;;;5091269;28;20216;-75
2023/12/18 12:18:51;;;;;;;3.65;3.35;;;14.40;99.90;;;;;;5089190;27;20303;-76
2023/12/18 12:21:18;;;;;;;4.30;3.78;;;14.60;99.90;;;;;;5089874;27;20201;-76
2023/12/18 12:23:46;;;;;;;4.10;3.42;;;14.80;99.90;;;;;;5087499;28;20217;-78
2023/12/18 12:26:15;;;;;;;4.43;3.78;;;14.80;99.90;;;;;;5087552;28;20841;-76
2023/12/18 12:28:42;;;;;;;4.47;3.65;;;14.70;99.90;;;;;;5089662;28;20292;-75
2023/12/18 12:31:09;;;;;;;4.13;3.70;;;14.50;99.90;;;;;;5085997;28;20719;-76
2023/12/18 12:33:41;;;;;;;5.18;4.00;;;14.50;99.90;;;;;;5084605;28;20213;-77
2023/12/18 12:36:09;;;;;;;4.30;3.60;;;14.60;99.90;;;;;;5089113;28;20871;-75
2023/12/18 12:38:37;;;;;;;6.30;3.70;;;14.40;99.90;;;;;;5089144;28;20761;-76
2023/12/18 12:41:05;;;;;;;3.72;3.40;;;14.10;99.90;;;;;;5092102;28;20584;-77
2023/12/18 12:43:32;;;;;;;3.95;3.55;;;14.10;99.90;;;;;;5089670;28;20311;-76
2023/12/18 12:46:00;;;;;;;4.43;4.00;;;14.20;99.90;;;;;;5092051;28;20223;-76
2023/12/18 12:48:27;;;;;;;4.10;3.70;;;14.10;99.90;;;;;;5088771;28;20805;-76
2023/12/18 12:50:54;;;;;;;4.07;3.67;;;14.20;99.90;;;;;;5091616;28;20670;-77
2023/12/18 12:53:24;;;;;;;4.75;3.50;;;14.30;99.90;;;;;;5090269;27;20604;-76
2023/12/18 12:55:51;;;;;;;3.53;3.22;;;14.50;99.90;;;;;;5088270;28;20231;-76